createdAt,value
2023-05-08T00:00:06.140Z,23.74
2023-05-08T00:01:06.139Z,23.75
2023-05-08T00:02:06.094Z,23.75
2023-05-08T00:03:06.210Z,23.75
2023-05-08T00:04:06.598Z,23.75
2023-05-08T00:05:06.189Z,23.74
2023-05-08T00:06:06.534Z,23.74
2023-05-08T00:07:06.140Z,23.73
2023-05-08T00:08:06.078Z,23.73
2023-05-08T00:09:06.098Z,23.74
2023-05-08T00:10:06.117Z,23.74
2023-05-08T00:11:06.108Z,23.73
2023-05-08T00:12:06.060Z,23.73
2023-05-08T00:13:06.120Z,23.73
2023-05-08T00:14:06.070Z,23.72
2023-05-08T00:15:06.068Z,23.73
2023-05-08T00:16:06.107Z,23.73
2023-05-08T00:17:06.189Z,23.73
2023-05-08T00:18:06.136Z,23.72
2023-05-08T00:19:06.074Z,23.72
2023-05-08T00:20:06.066Z,23.72
2023-05-08T00:21:06.062Z,23.72
2023-05-08T00:22:06.030Z,23.71
2023-05-08T00:23:06.059Z,23.71
2023-05-08T00:24:06.088Z,23.71
2023-05-08T00:25:06.031Z,23.71
2023-05-08T00:26:06.507Z,23.72
2023-05-08T00:27:06.043Z,23.71
2023-05-08T00:28:06.048Z,23.71
2023-05-08T00:29:06.910Z,23.71
2023-05-08T00:30:06.059Z,23.71
2023-05-08T00:31:06.091Z,23.71
2023-05-08T00:32:06.077Z,23.71
2023-05-08T00:33:06.076Z,23.70
2023-05-08T00:34:06.062Z,23.70
2023-05-08T00:35:06.045Z,23.70
2023-05-08T00:36:06.075Z,23.70
2023-05-08T00:37:06.046Z,23.70
2023-05-08T00:38:06.012Z,23.70
2023-05-08T00:39:06.041Z,23.70
2023-05-08T00:40:06.047Z,23.70
2023-05-08T00:41:06.474Z,23.69
2023-05-08T00:42:06.002Z,23.69
2023-05-08T00:43:06.052Z,23.69
2023-05-08T00:44:06.022Z,23.69
2023-05-08T00:45:06.021Z,23.69
2023-05-08T00:46:06.074Z,23.68
2023-05-08T00:47:06.021Z,23.68
2023-05-08T00:48:06.014Z,23.69
2023-05-08T00:49:06.031Z,23.69
2023-05-08T00:50:06.056Z,23.69
2023-05-08T00:51:07.041Z,23.68
2023-05-08T00:52:06.033Z,23.68
2023-05-08T00:53:06.033Z,23.68
2023-05-08T00:54:06.039Z,23.68
2023-05-08T00:55:06.032Z,23.67
2023-05-08T00:56:06.054Z,23.67
2023-05-08T00:57:06.061Z,23.67
2023-05-08T00:58:06.013Z,23.68
2023-05-08T00:59:06.043Z,23.67
2023-05-08T01:00:05.995Z,23.67
2023-05-08T01:01:06.072Z,23.67
2023-05-08T01:02:06.046Z,23.66
2023-05-08T01:03:06.033Z,23.67
2023-05-08T01:04:06.005Z,23.66
2023-05-08T01:05:06.002Z,23.67
2023-05-08T01:06:06.008Z,23.66
2023-05-08T01:07:06.011Z,23.66
2023-05-08T01:08:06.022Z,23.65
2023-05-08T01:09:06.029Z,23.66
2023-05-08T01:10:06.047Z,23.65
2023-05-08T01:11:06.009Z,23.65
2023-05-08T01:12:06.024Z,23.65
2023-05-08T01:13:06.091Z,23.66
2023-05-08T01:14:06.019Z,23.65
2023-05-08T01:15:06.045Z,23.65
2023-05-08T01:16:06.087Z,23.65
2023-05-08T01:17:06.001Z,23.64
2023-05-08T01:18:06.004Z,23.64
2023-05-08T01:19:05.979Z,23.64
2023-05-08T01:20:05.991Z,23.64
2023-05-08T01:21:05.978Z,23.64
2023-05-08T01:22:06.011Z,23.64
2023-05-08T01:23:06.016Z,23.65
2023-05-08T01:24:05.982Z,23.64
2023-05-08T01:25:06.019Z,23.63
2023-05-08T01:26:06.002Z,23.63
2023-05-08T01:27:06.011Z,23.64
2023-05-08T01:28:05.981Z,23.63
2023-05-08T01:29:05.976Z,23.63
2023-05-08T01:30:06.002Z,23.63
2023-05-08T01:31:06.019Z,23.63
2023-05-08T01:32:06.020Z,23.63
2023-05-08T01:33:06.130Z,23.63
2023-05-08T01:34:06.102Z,23.63
2023-05-08T01:35:06.013Z,23.62
2023-05-08T01:36:06.025Z,23.63
2023-05-08T01:37:06.575Z,23.62
2023-05-08T01:38:06.061Z,23.62
2023-05-08T01:39:06.042Z,23.63
2023-05-08T01:40:06.051Z,23.62
2023-05-08T01:41:06.082Z,23.62
2023-05-08T01:42:06.083Z,23.62
2023-05-08T01:43:06.079Z,23.62
2023-05-08T01:44:06.062Z,23.61
2023-05-08T01:45:06.061Z,23.61
2023-05-08T01:46:06.056Z,23.61
2023-05-08T01:47:06.655Z,23.61
2023-05-08T01:48:06.095Z,23.60
2023-05-08T01:49:06.076Z,23.61
2023-05-08T01:50:06.156Z,23.60
2023-05-08T01:51:06.092Z,23.61
2023-05-08T01:52:06.114Z,23.61
2023-05-08T01:53:06.075Z,23.61
2023-05-08T01:54:08.668Z,23.60
2023-05-08T01:55:06.103Z,23.60
2023-05-08T01:56:06.136Z,23.60
2023-05-08T01:57:06.080Z,23.60
2023-05-08T01:58:06.086Z,23.60
2023-05-08T01:59:06.091Z,23.60
2023-05-08T02:00:06.067Z,23.59
2023-05-08T02:01:06.161Z,23.59
2023-05-08T02:02:06.571Z,23.59
2023-05-08T02:03:06.136Z,23.58
2023-05-08T02:04:06.092Z,23.59
2023-05-08T02:05:06.050Z,23.58
2023-05-08T02:06:06.029Z,23.58
2023-05-08T02:07:06.039Z,23.59
2023-05-08T02:08:06.010Z,23.58
2023-05-08T02:09:06.023Z,23.58
2023-05-08T02:10:05.978Z,23.58
2023-05-08T02:11:06.116Z,23.58
2023-05-08T02:12:06.006Z,23.58
2023-05-08T02:13:06.046Z,23.58
2023-05-08T02:14:05.982Z,23.58
2023-05-08T02:15:06.031Z,23.57
2023-05-08T02:16:05.982Z,23.57
2023-05-08T02:17:05.999Z,23.58
2023-05-08T02:18:06.019Z,23.57
2023-05-08T02:19:05.962Z,23.57
2023-05-08T02:20:05.956Z,23.57
2023-05-08T02:21:05.947Z,23.56
2023-05-08T02:22:05.940Z,23.56
2023-05-08T02:23:05.922Z,23.56
2023-05-08T02:24:05.928Z,23.56
2023-05-08T02:25:05.923Z,23.57
2023-05-08T02:26:05.887Z,23.56
2023-05-08T02:27:05.901Z,23.56
2023-05-08T02:28:05.928Z,23.56
2023-05-08T02:29:05.878Z,23.56
2023-05-08T02:30:05.897Z,23.55
2023-05-08T02:31:05.863Z,23.56
2023-05-08T02:32:05.905Z,23.55
2023-05-08T02:33:05.894Z,23.55
2023-05-08T02:34:05.855Z,23.55
2023-05-08T02:35:05.824Z,23.55
2023-05-08T02:36:05.828Z,23.55
2023-05-08T02:37:05.828Z,23.55
2023-05-08T02:38:05.879Z,23.55
2023-05-08T02:39:05.834Z,23.55
2023-05-08T02:40:05.825Z,23.54
2023-05-08T02:41:05.799Z,23.54
2023-05-08T02:42:05.814Z,23.54
2023-05-08T02:43:05.804Z,23.54
2023-05-08T02:44:05.821Z,23.53
2023-05-08T02:45:05.798Z,23.54
2023-05-08T02:46:05.802Z,23.53
2023-05-08T02:47:07.175Z,23.54
2023-05-08T02:48:05.944Z,23.53
2023-05-08T02:49:05.739Z,23.54
2023-05-08T02:50:05.743Z,23.53
2023-05-08T02:51:05.758Z,23.53
2023-05-08T02:52:05.727Z,23.53
2023-05-08T02:53:05.709Z,23.53
2023-05-08T02:54:05.729Z,23.53
2023-05-08T02:55:05.723Z,23.53
2023-05-08T02:56:05.746Z,23.53
2023-05-08T02:57:05.689Z,23.53
2023-05-08T02:58:05.702Z,23.53
2023-05-08T02:59:05.701Z,23.53
2023-05-08T03:00:05.652Z,23.53
2023-05-08T03:01:05.733Z,23.52
2023-05-08T03:02:05.684Z,23.52
2023-05-08T03:03:05.745Z,23.52
2023-05-08T03:04:05.640Z,23.51
2023-05-08T03:05:05.656Z,23.52
2023-05-08T03:06:05.622Z,23.51
2023-05-08T03:07:05.662Z,23.51
2023-05-08T03:08:05.634Z,23.51
2023-05-08T03:09:05.625Z,23.51
2023-05-08T03:10:05.639Z,23.51
2023-05-08T03:11:05.619Z,23.51
2023-05-08T03:12:05.629Z,23.51
2023-05-08T03:13:05.647Z,23.51
2023-05-08T03:14:05.598Z,23.50
2023-05-08T03:15:05.621Z,23.50
2023-05-08T03:16:05.622Z,23.50
2023-05-08T03:17:05.575Z,23.50
2023-05-08T03:18:05.551Z,23.50
2023-05-08T03:19:05.538Z,23.50
2023-05-08T03:20:05.593Z,23.50
2023-05-08T03:21:05.553Z,23.50
2023-05-08T03:22:05.552Z,23.50
2023-05-08T03:23:05.560Z,23.50
2023-05-08T03:24:05.567Z,23.50
2023-05-08T03:25:05.526Z,23.50
2023-05-08T03:26:05.521Z,23.49
2023-05-08T03:27:05.511Z,23.50
2023-05-08T03:28:05.499Z,23.49
2023-05-08T03:29:05.484Z,23.49
2023-05-08T03:30:05.511Z,23.48
2023-05-08T03:31:05.591Z,23.49
2023-05-08T03:32:05.540Z,23.49
2023-05-08T03:33:05.659Z,23.48
2023-05-08T03:34:05.580Z,23.49
2023-05-08T03:35:05.553Z,23.49
2023-05-08T03:36:05.614Z,23.48
2023-05-08T03:37:06.048Z,23.48
2023-05-08T03:38:05.664Z,23.48
2023-05-08T03:39:05.645Z,23.48
2023-05-08T03:40:05.644Z,23.48
2023-05-08T03:41:05.685Z,23.47
2023-05-08T03:42:05.707Z,23.48
2023-05-08T03:43:05.690Z,23.47
2023-05-08T03:44:05.706Z,23.48
2023-05-08T03:45:05.707Z,23.47
2023-05-08T03:46:05.710Z,23.48
2023-05-08T03:47:05.865Z,23.47
2023-05-08T03:48:05.817Z,23.46
2023-05-08T03:49:05.764Z,23.47
2023-05-08T03:50:05.773Z,23.47
2023-05-08T03:51:05.809Z,23.47
2023-05-08T03:52:06.068Z,23.46
2023-05-08T03:53:05.824Z,23.46
2023-05-08T03:54:05.884Z,23.47
2023-05-08T03:55:05.918Z,23.46
2023-05-08T03:56:05.889Z,23.46
2023-05-08T03:57:05.895Z,23.46
2023-05-08T03:58:05.894Z,23.46
2023-05-08T03:59:05.938Z,23.46
2023-05-08T04:00:05.984Z,23.46
2023-05-08T04:01:05.958Z,23.45
2023-05-08T04:02:06.067Z,23.45
2023-05-08T04:03:06.056Z,23.45
2023-05-08T04:04:06.021Z,23.45
2023-05-08T04:05:06.004Z,23.45
2023-05-08T04:06:06.027Z,23.45
2023-05-08T04:07:06.047Z,23.44
2023-05-08T04:08:06.118Z,23.45
2023-05-08T04:09:06.079Z,23.45
2023-05-08T04:10:06.082Z,23.45
2023-05-08T04:11:06.114Z,23.45
2023-05-08T04:12:06.183Z,23.45
2023-05-08T04:13:06.292Z,23.44
2023-05-08T04:14:06.201Z,23.44
2023-05-08T04:15:06.225Z,23.44
2023-05-08T04:16:06.227Z,23.44
2023-05-08T04:17:06.291Z,23.44
2023-05-08T04:18:06.342Z,23.43
2023-05-08T04:19:06.314Z,23.44
2023-05-08T04:20:06.327Z,23.44
2023-05-08T04:21:06.383Z,23.44
2023-05-08T04:22:06.401Z,23.43
2023-05-08T04:23:06.502Z,23.44
2023-05-08T04:24:06.434Z,23.43
2023-05-08T04:25:06.437Z,23.44
2023-05-08T04:26:06.453Z,23.43
2023-05-08T04:27:06.488Z,23.43
2023-05-08T04:28:06.488Z,23.43
2023-05-08T04:29:06.500Z,23.43
2023-05-08T04:30:06.567Z,23.43
2023-05-08T04:31:06.544Z,23.43
2023-05-08T04:32:06.773Z,23.43
2023-05-08T04:33:06.611Z,23.43
2023-05-08T04:34:06.581Z,23.42
2023-05-08T04:35:06.639Z,23.42
2023-05-08T04:36:06.649Z,23.42
2023-05-08T04:37:06.652Z,23.42
2023-05-08T04:38:06.662Z,23.42
2023-05-08T04:39:06.663Z,23.42
2023-05-08T04:40:06.710Z,23.42
2023-05-08T04:41:06.747Z,23.41
2023-05-08T04:42:07.107Z,23.41
2023-05-08T04:43:06.732Z,23.41
2023-05-08T04:44:06.760Z,23.41
2023-05-08T04:45:06.790Z,23.41
2023-05-08T04:46:07.622Z,23.41
2023-05-08T04:47:06.826Z,23.41
2023-05-08T04:48:06.918Z,23.41
2023-05-08T04:49:06.889Z,23.41
2023-05-08T04:50:06.883Z,23.40
2023-05-08T04:51:06.933Z,23.40
2023-05-08T04:52:06.943Z,23.41
2023-05-08T04:53:06.991Z,23.40
2023-05-08T04:54:06.988Z,23.40
2023-05-08T04:55:07.007Z,23.43
2023-05-08T04:56:07.026Z,23.43
2023-05-08T04:57:07.083Z,23.43
2023-05-08T04:58:07.121Z,23.43
2023-05-08T04:59:07.115Z,23.44
2023-05-08T05:00:07.166Z,23.45
2023-05-08T05:01:07.237Z,23.44
2023-05-08T05:02:07.311Z,23.44
2023-05-08T05:03:07.415Z,23.45
2023-05-08T05:04:07.419Z,23.45
2023-05-08T05:05:07.336Z,23.45
2023-05-08T05:06:07.369Z,23.44
2023-05-08T05:07:07.611Z,23.45
2023-05-08T05:08:07.522Z,23.45
2023-05-08T05:09:07.444Z,23.45
2023-05-08T05:10:07.516Z,23.46
2023-05-08T05:11:07.534Z,23.46
2023-05-08T05:12:07.559Z,23.47
2023-05-08T05:13:07.749Z,23.46
2023-05-08T05:14:07.635Z,23.44
2023-05-08T05:15:07.651Z,23.45
2023-05-08T05:16:07.706Z,23.42
2023-05-08T05:17:07.764Z,23.42
2023-05-08T05:18:07.864Z,23.41
2023-05-08T05:19:07.797Z,23.41
2023-05-08T05:20:07.830Z,23.41
2023-05-08T05:21:07.897Z,23.43
2023-05-08T05:22:08.120Z,23.43
2023-05-08T05:23:07.929Z,23.43
2023-05-08T05:24:07.993Z,23.43
2023-05-08T05:25:08.059Z,23.46
2023-05-08T05:26:08.036Z,23.46
2023-05-08T05:27:08.076Z,23.47
2023-05-08T05:28:08.086Z,23.47
2023-05-08T05:29:08.143Z,23.47
2023-05-08T05:30:08.186Z,23.46
2023-05-08T05:31:08.213Z,23.48
2023-05-08T05:32:08.182Z,23.49
2023-05-08T05:33:08.213Z,23.49
2023-05-08T05:34:08.247Z,23.50
2023-05-08T05:35:08.237Z,23.50
2023-05-08T05:36:08.270Z,23.50
2023-05-08T05:37:08.276Z,23.51
2023-05-08T05:38:08.434Z,23.51
2023-05-08T05:39:08.342Z,23.51
2023-05-08T05:40:08.381Z,23.50
2023-05-08T05:41:08.406Z,23.50
2023-05-08T05:42:08.475Z,23.50
2023-05-08T05:43:08.516Z,23.50
2023-05-08T05:44:08.502Z,23.49
2023-05-08T05:45:08.482Z,23.49
2023-05-08T05:46:08.478Z,23.48
2023-05-08T05:47:08.691Z,23.49
2023-05-08T05:48:08.610Z,23.50
2023-05-08T05:49:08.606Z,23.50
2023-05-08T05:50:08.620Z,23.49
2023-05-08T05:51:08.638Z,23.47
2023-05-08T05:52:09.113Z,23.47
2023-05-08T05:53:08.773Z,23.48
2023-05-08T05:54:08.744Z,23.49
2023-05-08T05:55:08.741Z,23.47
2023-05-08T05:56:08.762Z,23.47
2023-05-08T05:57:08.804Z,23.47
2023-05-08T05:58:09.015Z,23.47
2023-05-08T05:59:08.858Z,23.47
2023-05-08T06:00:08.952Z,23.48
2023-05-08T06:01:08.921Z,23.47
2023-05-08T06:02:08.956Z,23.46
2023-05-08T06:03:09.139Z,23.45
2023-05-08T06:04:09.101Z,23.44
2023-05-08T06:05:08.981Z,23.44
2023-05-08T06:06:09.106Z,23.44
2023-05-08T06:07:09.071Z,23.43
2023-05-08T06:08:09.102Z,23.43
2023-05-08T06:09:09.145Z,23.41
2023-05-08T06:10:09.156Z,23.42
2023-05-08T06:11:09.174Z,23.41
2023-05-08T06:12:09.209Z,23.40
2023-05-08T06:13:09.324Z,23.40
2023-05-08T06:14:09.270Z,23.39
2023-05-08T06:15:09.309Z,23.38
2023-05-08T06:16:09.346Z,23.37
2023-05-08T06:17:09.432Z,23.37
2023-05-08T06:18:09.515Z,23.36
2023-05-08T06:19:09.470Z,23.36
2023-05-08T06:20:09.539Z,23.36
2023-05-08T06:21:09.545Z,23.35
2023-05-08T06:22:09.695Z,23.35
2023-05-08T06:23:09.739Z,23.35
2023-05-08T06:24:09.635Z,23.34
2023-05-08T06:25:09.857Z,23.34
2023-05-08T06:26:09.732Z,23.33
2023-05-08T06:27:09.796Z,23.34
2023-05-08T06:28:09.796Z,23.33
2023-05-08T06:29:09.871Z,23.33
2023-05-08T06:30:09.926Z,23.32
2023-05-08T06:31:09.971Z,23.33
2023-05-08T06:32:10.143Z,23.33
2023-05-08T06:33:10.058Z,23.31
2023-05-08T06:34:10.038Z,23.31
2023-05-08T06:35:10.264Z,23.30
2023-05-08T06:36:10.120Z,23.30
2023-05-08T06:37:10.662Z,23.28
2023-05-08T06:38:10.215Z,23.29
2023-05-08T06:39:10.283Z,23.28
2023-05-08T06:40:17.309Z,23.28
2023-05-08T06:41:10.254Z,23.28
2023-05-08T06:42:10.301Z,23.28
2023-05-08T06:43:10.655Z,23.28
2023-05-08T06:44:10.239Z,23.28
2023-05-08T06:45:10.469Z,23.28
2023-05-08T06:46:10.240Z,23.27
2023-05-08T06:47:10.244Z,23.27
2023-05-08T06:48:10.681Z,23.26
2023-05-08T06:49:10.213Z,23.27
2023-05-08T06:50:10.204Z,23.26
2023-05-08T06:51:10.214Z,23.26
2023-05-08T06:52:10.202Z,23.25
2023-05-08T06:53:10.691Z,23.23
2023-05-08T06:54:10.315Z,23.24
2023-05-08T06:55:10.179Z,23.23
2023-05-08T06:56:10.169Z,23.25
2023-05-08T06:57:11.104Z,23.26
2023-05-08T06:58:10.650Z,23.25
2023-05-08T06:59:10.151Z,23.26
2023-05-08T07:00:10.235Z,23.28
2023-05-08T07:01:10.229Z,23.30
2023-05-08T07:02:10.337Z,23.33
2023-05-08T07:03:10.690Z,23.35
2023-05-08T07:04:10.295Z,23.39
2023-05-08T07:05:10.439Z,23.42
2023-05-08T07:06:10.207Z,23.45
2023-05-08T07:07:10.201Z,23.49
2023-05-08T07:08:10.219Z,23.53
2023-05-08T07:09:10.254Z,23.56
2023-05-08T07:10:10.321Z,23.60
2023-05-08T07:11:10.406Z,23.62
2023-05-08T07:12:10.454Z,23.66
2023-05-08T07:13:10.567Z,23.69
2023-05-08T07:14:10.534Z,23.72
2023-05-08T07:15:21.834Z,23.75
2023-05-08T07:16:11.590Z,23.78
2023-05-08T07:17:10.598Z,23.80
2023-05-08T07:18:10.664Z,23.83
2023-05-08T07:19:10.572Z,23.85
2023-05-08T07:20:10.542Z,23.88
2023-05-08T07:21:10.566Z,23.91
2023-05-08T07:22:10.557Z,23.93
2023-05-08T07:23:10.655Z,23.96
2023-05-08T07:24:10.525Z,23.99
2023-05-08T07:25:10.709Z,24.02
2023-05-08T07:26:10.522Z,24.05
2023-05-08T07:27:10.519Z,24.08
2023-05-08T07:28:10.487Z,24.10
2023-05-08T07:29:10.623Z,24.11
2023-05-08T07:30:10.549Z,24.14
2023-05-08T07:31:10.628Z,24.16
2023-05-08T07:32:10.568Z,24.18
2023-05-08T07:33:10.588Z,24.21
2023-05-08T07:34:10.600Z,24.22
2023-05-08T07:35:11.306Z,24.25
2023-05-08T07:36:10.611Z,24.26
2023-05-08T07:37:10.633Z,24.29
2023-05-08T07:38:10.624Z,24.30
2023-05-08T07:39:10.628Z,24.33
2023-05-08T07:40:10.636Z,24.34
2023-05-08T07:41:10.639Z,24.37
2023-05-08T07:42:10.763Z,24.40
2023-05-08T07:43:10.631Z,24.40
2023-05-08T07:44:10.652Z,24.42
2023-05-08T07:45:10.940Z,24.44
2023-05-08T07:46:10.668Z,24.46
2023-05-08T07:47:10.724Z,24.50
2023-05-08T07:48:10.734Z,24.51
2023-05-08T07:49:10.728Z,24.52
2023-05-08T07:50:10.664Z,24.53
2023-05-08T07:51:10.740Z,24.55
2023-05-08T07:52:10.707Z,24.56
2023-05-08T07:53:10.710Z,24.58
2023-05-08T07:54:10.728Z,24.59
2023-05-08T07:55:10.831Z,24.61
2023-05-08T07:56:10.718Z,24.62
2023-05-08T07:57:10.721Z,24.62
2023-05-08T07:58:10.806Z,24.62
2023-05-08T07:59:10.761Z,24.63
2023-05-08T08:00:10.763Z,24.62
2023-05-08T08:01:10.777Z,24.60
2023-05-08T08:02:10.850Z,24.60
2023-05-08T08:03:10.943Z,24.58
2023-05-08T08:04:12.258Z,24.58
2023-05-08T08:05:11.377Z,24.59
2023-05-08T08:06:11.069Z,24.59
2023-05-08T08:07:11.051Z,24.59
2023-05-08T08:08:11.100Z,24.60
2023-05-08T08:09:11.096Z,24.62
2023-05-08T08:10:11.044Z,24.63
2023-05-08T08:11:11.061Z,24.65
2023-05-08T08:12:11.152Z,24.65
2023-05-08T08:13:11.183Z,24.67
2023-05-08T08:14:11.166Z,24.69
2023-05-08T08:15:11.459Z,24.73
2023-05-08T08:16:11.169Z,24.75
2023-05-08T08:17:11.287Z,24.77
2023-05-08T08:18:11.280Z,24.78
2023-05-08T08:19:11.122Z,24.79
2023-05-08T08:20:11.108Z,24.80
2023-05-08T08:21:11.108Z,24.79
2023-05-08T08:22:11.124Z,24.81
2023-05-08T08:23:11.206Z,24.87
2023-05-08T08:24:11.115Z,24.92
2023-05-08T08:25:11.271Z,24.95
2023-05-08T08:26:11.110Z,24.97
2023-05-08T08:27:11.115Z,25.00
2023-05-08T08:28:11.112Z,25.01
2023-05-08T08:29:11.161Z,25.05
2023-05-08T08:30:17.561Z,25.07
2023-05-08T08:31:12.222Z,25.06
2023-05-08T08:32:11.182Z,25.07
2023-05-08T08:33:11.196Z,25.08
2023-05-08T08:34:11.171Z,25.07
2023-05-08T08:35:11.412Z,25.10
2023-05-08T08:36:11.168Z,25.13
2023-05-08T08:37:12.678Z,25.15
2023-05-08T08:38:11.220Z,25.16
2023-05-08T08:39:12.984Z,25.19
2023-05-08T08:40:11.094Z,25.19
2023-05-08T08:41:11.087Z,25.19
2023-05-08T08:42:11.127Z,25.17
2023-05-08T08:43:11.073Z,25.19
2023-05-08T08:44:11.100Z,25.17
2023-05-08T08:45:11.374Z,25.16
2023-05-08T08:46:11.297Z,25.16
2023-05-08T08:47:11.086Z,25.17
2023-05-08T08:48:11.248Z,25.20
2023-05-08T08:49:11.059Z,25.21
2023-05-08T08:50:14.222Z,25.21
2023-05-08T08:51:11.031Z,25.20
2023-05-08T08:52:11.025Z,25.23
2023-05-08T08:53:11.058Z,25.24
2023-05-08T08:54:11.021Z,25.26
2023-05-08T08:55:11.123Z,25.26
2023-05-08T08:56:11.019Z,25.24
2023-05-08T08:57:11.024Z,25.22
2023-05-08T08:58:10.995Z,25.24
2023-05-08T08:59:11.016Z,25.21
2023-05-08T09:00:11.017Z,25.19
2023-05-08T09:01:10.973Z,25.20
2023-05-08T09:02:11.196Z,25.19
2023-05-08T09:03:11.288Z,25.19
2023-05-08T09:04:11.068Z,25.17
2023-05-08T09:05:11.157Z,25.16
2023-05-08T09:06:10.937Z,25.15
2023-05-08T09:07:10.947Z,25.15
2023-05-08T09:08:11.238Z,25.18
2023-05-08T09:09:10.953Z,25.17
2023-05-08T09:10:10.956Z,25.19
2023-05-08T09:11:11.022Z,25.20
2023-05-08T09:12:10.928Z,25.21
2023-05-08T09:13:12.060Z,25.21
2023-05-08T09:14:10.921Z,25.21
2023-05-08T09:15:11.032Z,25.22
2023-05-08T09:16:10.998Z,25.24
2023-05-08T09:17:10.910Z,25.23
2023-05-08T09:18:11.096Z,25.24
2023-05-08T09:19:10.910Z,25.24
2023-05-08T09:20:11.294Z,25.24
2023-05-08T09:21:10.885Z,25.26
2023-05-08T09:22:10.880Z,25.27
2023-05-08T09:23:10.906Z,25.29
2023-05-08T09:24:10.865Z,25.29
2023-05-08T09:25:10.934Z,25.31
2023-05-08T09:26:10.886Z,25.36
2023-05-08T09:27:10.920Z,25.39
2023-05-08T09:28:11.206Z,25.42
2023-05-08T09:29:11.035Z,25.43
2023-05-08T09:30:11.070Z,25.44
2023-05-08T09:31:11.197Z,25.45
2023-05-08T09:32:11.249Z,25.45
2023-05-08T09:33:11.293Z,25.46
2023-05-08T09:34:11.500Z,25.48
2023-05-08T09:35:11.602Z,25.49
2023-05-08T09:36:11.451Z,25.47
2023-05-08T09:37:11.500Z,25.48
2023-05-08T09:38:11.747Z,25.48
2023-05-08T09:39:11.620Z,25.46
2023-05-08T09:40:11.688Z,25.46
2023-05-08T09:41:11.793Z,25.46
2023-05-08T09:42:11.807Z,25.45
2023-05-08T09:43:12.191Z,25.46
2023-05-08T09:44:11.902Z,25.47
2023-05-08T09:45:12.230Z,25.46
2023-05-08T09:46:12.063Z,25.50
2023-05-08T09:47:12.071Z,25.51
2023-05-08T09:48:12.192Z,25.53
2023-05-08T09:49:12.722Z,25.53
2023-05-08T09:50:12.717Z,25.51
2023-05-08T09:51:12.257Z,25.51
2023-05-08T09:52:12.313Z,25.50
2023-05-08T09:53:12.694Z,25.50
2023-05-08T09:54:12.427Z,25.52
2023-05-08T09:55:12.471Z,25.48
2023-05-08T09:56:12.555Z,25.47
2023-05-08T09:57:12.594Z,25.48
2023-05-08T09:58:12.693Z,25.48
2023-05-08T09:59:12.681Z,25.47
2023-05-08T10:00:13.262Z,25.46
2023-05-08T10:01:12.882Z,25.43
2023-05-08T10:02:12.948Z,25.41
2023-05-08T10:03:13.042Z,25.41
2023-05-08T10:04:13.082Z,25.40
2023-05-08T10:05:13.842Z,25.39
2023-05-08T10:06:13.288Z,25.39
2023-05-08T10:07:13.129Z,25.37
2023-05-08T10:08:13.136Z,25.37
2023-05-08T10:09:13.172Z,25.35
2023-05-08T10:10:13.271Z,25.35
2023-05-08T10:11:13.157Z,25.31
2023-05-08T10:12:13.123Z,25.30
2023-05-08T10:13:13.143Z,25.29
2023-05-08T10:14:13.131Z,25.29
2023-05-08T10:15:13.129Z,25.29
2023-05-08T10:16:13.154Z,25.28
2023-05-08T10:17:13.241Z,25.27
2023-05-08T10:18:13.177Z,25.27
2023-05-08T10:19:13.094Z,25.25
2023-05-08T10:20:13.200Z,25.26
2023-05-08T10:21:13.127Z,25.25
2023-05-08T10:22:13.208Z,25.23
2023-05-08T10:23:13.126Z,25.22
2023-05-08T10:24:13.124Z,25.21
2023-05-08T10:25:13.214Z,25.21
2023-05-08T10:26:13.079Z,25.20
2023-05-08T10:27:13.125Z,25.21
2023-05-08T10:28:13.077Z,25.22
2023-05-08T10:29:13.090Z,25.21
2023-05-08T10:30:13.272Z,25.17
2023-05-08T10:31:13.216Z,25.16
2023-05-08T10:32:13.112Z,25.17
2023-05-08T10:33:13.272Z,25.17
2023-05-08T10:34:13.110Z,25.16
2023-05-08T10:35:13.131Z,25.16
2023-05-08T10:36:13.070Z,25.14
2023-05-08T10:37:13.110Z,25.14
2023-05-08T10:38:13.343Z,25.13
2023-05-08T10:39:13.081Z,25.12
2023-05-08T10:40:13.212Z,25.10
2023-05-08T10:41:13.122Z,25.09
2023-05-08T10:42:13.119Z,25.08
2023-05-08T10:43:13.124Z,25.06
2023-05-08T10:44:13.108Z,25.05
2023-05-08T10:45:13.192Z,25.04
2023-05-08T10:46:13.167Z,25.05
2023-05-08T10:47:13.194Z,25.04
2023-05-08T10:48:13.284Z,25.03
2023-05-08T10:49:13.193Z,25.01
2023-05-08T10:50:13.409Z,25.00
2023-05-08T10:51:13.180Z,24.98
2023-05-08T10:52:13.192Z,24.97
2023-05-08T10:53:13.240Z,24.96
2023-05-08T10:54:13.198Z,24.95
2023-05-08T10:55:13.228Z,24.94
2023-05-08T10:56:13.221Z,24.93
2023-05-08T10:57:13.235Z,24.92
2023-05-08T10:58:13.236Z,24.91
2023-05-08T10:59:13.210Z,24.89
2023-05-08T11:00:13.342Z,24.89
2023-05-08T11:01:13.277Z,24.88
2023-05-08T11:02:13.256Z,24.87
2023-05-08T11:03:27.354Z,24.86
2023-05-08T11:04:14.317Z,24.85
2023-05-08T11:05:13.209Z,24.85
2023-05-08T11:06:13.206Z,24.84
2023-05-08T11:07:13.226Z,24.83
2023-05-08T11:08:13.217Z,24.80
2023-05-08T11:09:13.167Z,24.80
2023-05-08T11:10:13.444Z,24.79
2023-05-08T11:11:13.214Z,24.78
2023-05-08T11:12:13.171Z,24.77
2023-05-08T11:13:13.286Z,24.76
2023-05-08T11:14:13.143Z,24.75
2023-05-08T11:15:13.174Z,24.74
2023-05-08T11:16:13.184Z,24.73
2023-05-08T11:17:13.169Z,24.71
2023-05-08T11:18:13.171Z,24.71
2023-05-08T11:19:13.142Z,24.69
2023-05-08T11:20:13.428Z,24.67
2023-05-08T11:21:13.135Z,24.64
2023-05-08T11:22:13.136Z,24.63
2023-05-08T11:23:13.138Z,24.61
2023-05-08T11:24:13.108Z,24.60
2023-05-08T11:25:13.085Z,24.59
2023-05-08T11:26:13.103Z,24.58
2023-05-08T11:27:13.130Z,24.57
2023-05-08T11:28:13.142Z,24.56
2023-05-08T11:29:13.190Z,24.54
2023-05-08T11:30:13.295Z,24.54
2023-05-08T11:31:13.317Z,24.52
2023-05-08T11:32:13.283Z,24.51
2023-05-08T11:33:13.318Z,24.50
2023-05-08T11:34:13.717Z,24.48
2023-05-08T11:35:13.350Z,24.47
2023-05-08T11:36:13.401Z,24.47
2023-05-08T11:37:14.159Z,24.46
2023-05-08T11:38:13.485Z,24.45
2023-05-08T11:39:13.803Z,24.44
2023-05-08T11:40:13.803Z,24.44
2023-05-08T11:41:13.570Z,24.44
2023-05-08T11:42:13.645Z,24.43
2023-05-08T11:43:13.649Z,24.42
2023-05-08T11:44:14.822Z,24.40
2023-05-08T11:45:13.748Z,24.40
2023-05-08T11:46:13.772Z,24.38
2023-05-08T11:47:13.991Z,24.37
2023-05-08T11:48:13.890Z,24.37
2023-05-08T11:49:13.899Z,24.35
2023-05-08T11:50:14.465Z,24.35
2023-05-08T11:51:14.030Z,24.34
2023-05-08T11:52:14.050Z,24.33
2023-05-08T11:53:14.098Z,24.33
2023-05-08T11:54:14.176Z,24.33
2023-05-08T11:55:14.224Z,24.33
2023-05-08T11:56:14.262Z,24.32
2023-05-08T11:57:14.306Z,24.32
2023-05-08T11:58:14.332Z,24.33
2023-05-08T11:59:14.478Z,24.33
2023-05-08T12:00:14.836Z,24.33
2023-05-08T12:01:14.514Z,24.33
2023-05-08T12:02:14.562Z,24.31
2023-05-08T12:03:14.693Z,24.30
2023-05-08T12:04:14.736Z,24.30
2023-05-08T12:05:14.757Z,24.30
2023-05-08T12:06:14.744Z,24.31
2023-05-08T12:07:14.770Z,24.30
2023-05-08T12:08:15.734Z,24.29
2023-05-08T12:09:14.933Z,24.28
2023-05-08T12:10:15.485Z,24.28
2023-05-08T12:11:14.994Z,24.28
2023-05-08T12:12:15.050Z,24.27
2023-05-08T12:13:15.144Z,24.27
2023-05-08T12:14:15.151Z,24.25
2023-05-08T12:15:15.364Z,24.25
2023-05-08T12:16:15.278Z,24.23
2023-05-08T12:17:15.399Z,24.24
2023-05-08T12:18:15.436Z,24.23
2023-05-08T12:19:15.435Z,24.23
2023-05-08T12:20:15.966Z,24.24
2023-05-08T12:21:15.537Z,24.22
2023-05-08T12:22:15.639Z,24.21
2023-05-08T12:23:15.682Z,24.21
2023-05-08T12:24:15.747Z,24.21
2023-05-08T12:25:16.096Z,24.20
2023-05-08T12:26:15.880Z,24.19
2023-05-08T12:27:15.913Z,24.19
2023-05-08T12:28:15.977Z,24.17
2023-05-08T12:29:16.064Z,24.18
2023-05-08T12:30:16.852Z,24.18
2023-05-08T12:31:16.258Z,24.18
2023-05-08T12:32:16.253Z,24.18
2023-05-08T12:33:16.362Z,24.18
2023-05-08T12:34:16.366Z,24.18
2023-05-08T12:35:16.481Z,24.17
2023-05-08T12:36:16.517Z,24.18
2023-05-08T12:37:16.564Z,24.17
2023-05-08T12:38:16.642Z,24.16
2023-05-08T12:39:16.729Z,24.16
2023-05-08T12:40:16.753Z,24.15
2023-05-08T12:41:16.800Z,24.15
2023-05-08T12:42:16.867Z,24.15
2023-05-08T12:43:16.973Z,24.15
2023-05-08T12:44:17.008Z,24.15
2023-05-08T12:45:17.037Z,24.15
2023-05-08T12:46:17.224Z,24.14
2023-05-08T12:47:17.171Z,24.13
2023-05-08T12:48:17.265Z,24.13
2023-05-08T12:49:17.680Z,24.13
2023-05-08T12:50:17.372Z,24.13
2023-05-08T12:51:17.455Z,24.12
2023-05-08T12:52:17.499Z,24.11